Gladstone, Oregon
Current Conditions -  °F | °C
As of 9:53 AM on Friday 24 Oct 2014 (Local Time) from KUAO Reporting Station
Clear Clear  
Wind Chill: 51°   Ceiling: Unl
Heat Index: 51°   Visibility: 10mi
Dew Point: 49°   Wind: 8mph
Humidity: 92%   Direction: 360°N
Pressure: 29.98"   Gusts: NA
Location:  45.38°N, 122.59°W
Report Text: KUAO 241653Z AUTO 36007KT 10SM CLR 11/09 A2998 RMK AO2 SLP152 T01060094 $
Loading
Personal Weather Stations






























Interactive Weather Map
Tropical Storm Tracking
New forecast layout! Learn more

10-Day Weather Forecast

Advertisements
Track Severe Weather on mobile